Time;durP1;ratioP1;P1;durP2;ratioP2;P2;SDS_P1;SDS_P2;PMS_P1;PMS_P2;Temp;Humidity;BMP_temperature;BMP_pressure;BME280_temperature;BME280_humidity;BME280_pressure;Samples;Min_cycle;Max_cycle;Signal;HPM_P1;HPM_P2
2021/03/05 00:00:29;;;;;;;31.13;13.93;;;;;;;9.72;38.87;94510.34;5012566;28;20570;-71
2021/03/05 00:02:55;;;;;;;33.70;15.43;;;;;;;9.99;38.17;94502.53;5013750;28;20171;-73
2021/03/05 00:05:20;;;;;;;29.43;12.80;;;;;;;9.38;39.64;94517.22;5013559;28;20192;-74
2021/03/05 00:07:46;;;;;;;29.33;14.23;;;;;;;9.72;38.59;94510.34;5012547;28;20573;-72
2021/03/05 00:10:17;;;;;;;31.03;13.03;;;;;;;10.05;37.06;94504.59;5012186;28;20204;-73
2021/03/05 00:12:42;;;;;;;36.60;15.23;;;;;;;9.60;37.79;94499.03;5012486;28;20178;-71
2021/03/05 00:15:09;;;;;;;29.43;13.67;;;;;;;9.85;38.40;94499.56;5013203;28;20463;-71
2021/03/05 00:17:35;;;;;;;30.93;13.40;;;;;;;9.13;39.67;94507.84;5013562;28;20173;-72
2021/03/05 00:20:01;;;;;;;30.20;14.57;;;;;;;9.59;39.81;94514.25;5013279;28;20783;-75
2021/03/05 00:22:26;;;;;;;27.80;13.00;;;;;;;9.06;38.99;94515.69;5012265;28;20169;-70
2021/03/05 00:24:52;;;;;;;29.00;13.27;;;;;;;9.61;38.08;94492.59;5013171;28;20169;-72
2021/03/05 00:27:17;;;;;;;27.73;13.10;;;;;;;8.97;39.71;94495.31;5013400;28;20176;-71
2021/03/05 00:29:43;;;;;;;24.53;11.57;;;;;;;8.96;39.54;94504.41;5013095;28;20271;-71
2021/03/05 00:32:08;;;;;;;28.63;13.37;;;;;;;8.92;39.55;94492.94;5012838;28;20180;-71
2021/03/05 00:34:35;;;;;;;24.30;12.13;;;;;;;9.27;39.82;94500.22;5011847;28;20730;-71
2021/03/05 00:37:00;;;;;;;25.97;13.30;;;;;;;8.76;39.73;94491.38;5013094;28;20215;-70
2021/03/05 00:39:26;;;;;;;27.73;13.27;;;;;;;8.59;40.48;94493.25;5013167;28;20428;-70
2021/03/05 00:41:51;;;;;;;30.63;14.03;;;;;;;9.18;39.82;94495.03;5012755;28;20632;-70
2021/03/05 00:44:17;;;;;;;43.97;13.07;;;;;;;9.52;37.99;94484.78;5013093;28;20274;-71
2021/03/05 00:46:42;;;;;;;27.63;12.83;;;;;;;9.48;38.28;94481.25;5012649;28;20177;-75
2021/03/05 00:49:08;;;;;;;24.07;12.87;;;;;;;9.72;37.97;94491.69;5012955;28;20217;-74
2021/03/05 00:51:33;;;;;;;28.13;12.40;;;;;;;9.72;38.73;94493.59;5012658;28;20231;-71
2021/03/05 00:53:59;;;;;;;25.43;12.30;;;;;;;9.02;40.45;94497.72;5012587;28;20639;-72
2021/03/05 00:56:24;;;;;;;23.30;11.43;;;;;;;8.85;41.16;94479.41;5012705;28;20208;-73
2021/03/05 00:58:50;;;;;;;28.13;13.67;;;;;;;8.99;40.18;94481.66;5012573;28;20231;-74
2021/03/05 01:01:15;;;;;;;30.50;13.30;;;;;;;9.16;40.31;94481.31;5012642;28;20231;-73
2021/03/05 01:03:41;;;;;;;29.40;13.97;;;;;;;9.20;40.22;94471.53;5012438;28;20272;-70
2021/03/05 01:06:06;;;;;;;30.10;12.90;;;;;;;9.07;40.89;94471.94;5011432;28;20577;-75
2021/03/05 01:08:32;;;;;;;32.47;12.97;;;;;;;9.35;40.33;94477.94;5011168;28;20602;-76
2021/03/05 01:10:58;;;;;;;32.23;12.80;;;;;;;8.59;41.31;94476.50;5012656;28;20260;-71
2021/03/05 01:13:23;;;;;;;24.93;13.10;;;;;;;8.91;41.94;94472.72;5012346;28;20671;-74
2021/03/05 01:15:49;;;;;;;27.70;10.90;;;;;;;9.22;40.83;94477.25;5012430;28;20750;-71
2021/03/05 01:18:14;;;;;;;31.23;13.67;;;;;;;9.34;39.77;94475.63;5012359;28;20173;-75
2021/03/05 01:20:40;;;;;;;30.23;13.17;;;;;;;8.58;40.40;94470.38;5012164;28;20205;-70
2021/03/05 01:23:05;;;;;;;33.53;13.50;;;;;;;8.18;40.74;94436.63;5012303;28;20173;-72
2021/03/05 01:25:32;;;;;;;36.03;13.60;;;;;;;8.72;40.23;94477.97;5012064;28;20185;-71
2021/03/05 01:27:57;;;;;;;27.40;12.77;;;;;;;8.41;40.51;94470.69;5012279;28;20536;-73
2021/03/05 01:30:23;;;;;;;26.23;12.90;;;;;;;8.17;41.69;94464.34;5012018;28;20514;-75
2021/03/05 01:32:49;;;;;;;37.33;12.70;;;;;;;8.66;41.42;94466.78;5010844;28;20227;-70
2021/03/05 01:35:16;;;;;;;25.73;11.63;;;;;;;8.36;41.42;94462.97;5011773;28;20208;-74
2021/03/05 01:37:42;;;;;;;25.80;12.33;;;;;;;8.45;41.71;94466.25;5010457;28;20195;-70
2021/03/05 01:40:13;;;;;;;28.67;12.43;;;;;;;8.62;42.18;94468.59;5011813;28;20432;-71
2021/03/05 01:42:39;;;;;;;24.17;12.47;;;;;;;8.68;41.91;94471.78;5011651;28;20184;-74
2021/03/05 01:45:17;;;;;;;26.10;11.73;;;;;;;8.46;42.66;94462.47;5011848;28;20424;-74
2021/03/05 01:47:46;;;;;;;24.40;12.03;;;;;;;8.72;41.72;94470.75;5011930;28;20419;-74
2021/03/05 01:50:17;;;;;;;30.63;12.40;;;;;;;8.75;41.45;94463.94;5010994;28;20818;-74
2021/03/05 01:52:45;;;;;;;30.33;13.00;;;;;;;8.63;41.82;94467.47;5009831;28;20463;-70
2021/03/05 01:55:11;;;;;;;29.37;13.67;;;;;;;8.77;41.03;94450.31;5009729;28;20541;-71
2021/03/05 01:57:36;;;;;;;26.43;11.33;;;;;;;8.20;42.25;94465.56;5011567;28;20879;-70
2021/03/05 02:00:03;;;;;;;30.07;12.67;;;;;;;8.59;41.48;94461.31;5011547;28;20196;-70
2021/03/05 02:02:28;;;;;;;23.53;11.80;;;;;;;8.23;42.36;94465.66;5009727;28;20169;-71
2021/03/05 02:04:54;;;;;;;26.10;11.67;;;;;;;8.47;42.84;94466.66;5010968;28;20444;-75
2021/03/05 02:07:19;;;;;;;41.13;13.00;;;;;;;8.40;42.74;94466.50;5008738;28;20212;-72
2021/03/05 02:09:45;;;;;;;20.10;11.30;;;;;;;8.49;41.78;94459.13;5011249;28;20652;-70
2021/03/05 02:12:10;;;;;;;33.47;12.27;;;;;;;8.16;43.40;94462.03;5010919;28;20169;-73
2021/03/05 02:14:36;;;;;;;24.97;10.90;;;;;;;8.43;42.27;94460.50;5011405;28;20185;-71
2021/03/05 02:17:08;;;;;;;23.67;11.10;;;;;;;8.45;42.36;94469.69;5009483;28;20201;-74
2021/03/05 02:19:49;;;;;;;24.97;10.67;;;;;;;8.75;39.36;94463.94;4994298;28;20215;-71
2021/03/05 02:22:51;;;;;;;26.27;12.53;;;;;;;8.12;41.56;94466.47;5010082;28;20904;-73
2021/03/05 02:25:25;;;;;;;22.40;10.80;;;;;;;8.40;42.75;94474.47;5011599;28;20764;-71
2021/03/05 02:28:17;;;;;;;22.73;11.17;;;;;;;8.39;42.95;94467.63;5011566;28;20451;-72
2021/03/05 02:31:04;;;;;;;22.87;11.40;;;;;;;8.55;41.70;94467.66;5010073;28;20804;-74
2021/03/05 02:33:37;;;;;;;26.70;10.90;;;;;;;8.28;41.76;94463.88;5010344;28;20423;-71
2021/03/05 02:36:05;;;;;;;25.13;10.47;;;;;;;8.45;40.97;94477.66;4994558;28;20499;-71
2021/03/05 02:38:31;;;;;;;23.07;10.30;;;;;;;7.61;43.41;94476.84;4994174;28;20416;-70
2021/03/05 02:40:56;;;;;;;28.90;11.93;;;;;;;7.75;42.30;94460.53;5010088;28;20450;-71
2021/03/05 02:43:23;;;;;;;30.80;11.17;;;;;;;7.89;43.60;94472.31;4994064;28;20583;-70
2021/03/05 02:45:56;;;;;;;26.67;10.90;;;;;;;7.19;44.07;94479.00;5011201;28;20248;-70
2021/03/05 02:48:24;;;;;;;26.73;11.17;;;;;;;7.38;43.09;94481.84;5011448;28;20450;-76
2021/03/05 02:50:54;;;;;;;30.23;11.87;;;;;;;7.73;43.69;94484.00;5009826;28;20422;-71
2021/03/05 02:53:20;;;;;;;25.23;11.77;;;;;;;7.94;41.71;94482.72;5010009;28;20986;-73
2021/03/05 02:55:51;;;;;;;20.77;10.87;;;;;;;7.95;43.84;94486.94;5014876;28;20497;-76
2021/03/05 02:58:16;;;;;;;30.13;12.00;;;;;;;7.51;43.45;94485.25;4997434;28;20240;-73
2021/03/05 03:00:42;;;;;;;25.73;11.40;;;;;;;7.88;42.30;94483.31;5013540;28;21144;-75
2021/03/05 03:03:08;;;;;;;28.57;10.80;;;;;;;7.68;43.89;94487.66;4997420;28;20181;-72
2021/03/05 03:05:33;;;;;;;28.30;12.37;;;;;;;7.75;43.80;94487.13;5013503;28;20554;-73
2021/03/05 03:07:59;;;;;;;22.97;11.37;;;;;;;8.00;42.33;94485.16;4997285;28;20522;-73
2021/03/05 03:10:26;;;;;;;35.90;13.83;;;;;;;8.04;41.78;94483.38;4997295;28;20196;-74
2021/03/05 03:12:53;;;;;;;24.73;12.00;;;;;;;8.01;43.61;94481.38;5013326;28;20698;-75
2021/03/05 03:15:18;;;;;;;28.17;11.27;;;;;;;8.12;42.12;94482.44;5014661;28;20460;-74
2021/03/05 03:17:45;;;;;;;24.20;10.87;;;;;;;7.98;43.42;94472.19;5011632;28;20853;-74
2021/03/05 03:20:16;;;;;;;25.07;10.97;;;;;;;8.07;42.17;94486.09;5014436;28;20177;-75
2021/03/05 03:22:42;;;;;;;23.30;12.60;;;;;;;7.33;43.78;94488.16;5012789;28;20428;-75
2021/03/05 03:25:07;;;;;;;25.17;10.30;;;;;;;7.87;42.27;94487.84;4997002;28;20427;-70
2021/03/05 03:27:33;;;;;;;21.93;11.17;;;;;;;8.01;42.81;94494.66;4996621;28;20184;-72
2021/03/05 03:29:59;;;;;;;26.43;10.77;;;;;;;7.83;42.70;94486.97;5014378;28;20196;-71
2021/03/05 03:32:24;;;;;;;22.60;9.87;;;;;;;8.15;41.03;94492.41;5014103;28;20523;-74
2021/03/05 03:34:50;;;;;;;26.43;10.97;;;;;;;7.92;41.42;94494.81;5014149;28;20180;-70
2021/03/05 03:37:15;;;;;;;22.17;10.40;;;;;;;7.86;43.06;94491.63;5013134;28;20173;-69
2021/03/05 03:39:41;;;;;;;19.87;9.93;;;;;;;6.91;44.02;94490.28;4996253;28;20193;-70
2021/03/05 03:42:06;;;;;;;23.93;10.40;;;;;;;7.46;43.00;94488.91;4980305;28;20188;-70
2021/03/05 03:44:32;;;;;;;23.07;10.50;;;;;;;6.79;43.43;94496.34;5013758;28;20176;-70
2021/03/05 03:46:57;;;;;;;21.60;11.00;;;;;;;6.92;44.21;94489.16;5014085;28;20180;-70
2021/03/05 03:49:50;;;;;;;21.60;10.33;;;;;;;6.43;44.79;94489.06;5012159;28;20188;-70
2021/03/05 03:52:22;;;;;;;23.97;10.60;;;;;;;6.67;44.39;94491.00;4939908;29;20338;-71
2021/03/05 03:54:47;;;;;;;20.40;10.10;;;;;;;7.19;43.42;94500.25;4921912;29;20435;-71
2021/03/05 03:57:13;;;;;;;18.20;9.53;;;;;;;7.52;43.16;94500.09;4937574;29;20533;-71
2021/03/05 03:59:39;;;;;;;20.60;9.93;;;;;;;7.64;42.24;94486.81;4937324;29;20427;-71
2021/03/05 04:02:06;;;;;;;21.77;10.60;;;;;;;7.59;42.97;94501.09;4937348;29;20174;-71
2021/03/05 04:04:31;;;;;;;26.03;10.57;;;;;;;7.30;43.78;94490.72;4952488;28;20722;-71
2021/03/05 04:06:57;;;;;;;24.10;10.50;;;;;;;7.59;42.92;94493.13;4936611;29;20431;-71
2021/03/05 04:09:23;;;;;;;22.37;9.10;;;;;;;7.54;43.34;94496.00;4952977;29;21195;-76
2021/03/05 04:11:48;;;;;;;18.50;9.97;;;;;;;7.54;43.16;94495.22;4921348;29;20266;-76
2021/03/05 04:14:14;;;;;;;24.43;10.47;;;;;;;7.46;42.20;94504.06;4937055;29;20183;-73
2021/03/05 04:16:39;;;;;;;21.23;9.87;;;;;;;7.51;43.58;94498.53;4937071;29;20310;-75
2021/03/05 04:19:05;;;;;;;15.60;9.57;;;;;;;7.71;43.07;94512.81;4937223;29;20742;-76
2021/03/05 04:21:35;;;;;;;24.70;10.47;;;;;;;7.69;43.23;94497.97;4952699;29;20175;-73
2021/03/05 04:24:01;;;;;;;26.00;11.40;;;;;;;7.72;42.43;94504.50;4936719;29;20191;-76
2021/03/05 04:26:26;;;;;;;23.57;10.70;;;;;;;7.82;43.58;94496.06;4952793;29;20462;-77
2021/03/05 04:28:52;;;;;;;22.13;10.13;;;;;;;7.80;43.17;94503.59;4975534;28;20456;-75
2021/03/05 04:31:18;;;;;;;22.60;11.10;;;;;;;7.61;44.49;94512.16;5013144;28;20169;-77
2021/03/05 04:33:43;;;;;;;28.20;10.40;;;;;;;7.64;43.84;94513.38;5013206;28;20200;-76
2021/03/05 04:36:09;;;;;;;20.33;9.83;;;;;;;7.67;44.47;94520.66;5012945;28;20681;-72
2021/03/05 04:38:34;;;;;;;23.17;10.57;;;;;;;7.72;42.69;94498.41;5013217;28;20169;-76
2021/03/05 04:41:00;;;;;;;22.53;10.47;;;;;;;7.69;45.03;94515.81;5012969;28;20177;-74
2021/03/05 04:43:25;;;;;;;26.80;10.37;;;;;;;7.16;45.19;94515.72;5013071;28;20219;-77
2021/03/05 04:45:51;;;;;;;31.07;9.90;;;;;;;7.58;43.92;94512.84;5013018;28;20239;-72
2021/03/05 04:48:16;;;;;;;26.70;9.17;;;;;;;7.67;43.79;94510.81;5012777;28;20201;-72
2021/03/05 04:50:42;;;;;;;23.47;10.43;;;;;;;7.61;43.70;94508.72;5012890;28;20181;-76
2021/03/05 04:53:08;;;;;;;19.70;10.00;;;;;;;7.64;44.29;94490.22;5012426;28;20217;-74
2021/03/05 04:55:33;;;;;;;24.17;9.73;;;;;;;7.90;44.19;94511.09;5012913;28;20204;-71
2021/03/05 04:57:59;;;;;;;19.60;9.70;;;;;;;7.92;43.71;94516.09;5012693;28;20255;-71
2021/03/05 05:00:24;;;;;;;20.17;9.00;;;;;;;7.78;43.18;94515.66;5011616;28;20268;-71
2021/03/05 05:02:50;;;;;;;18.50;8.53;;;;;;;7.60;43.50;94513.25;5012469;28;20215;-72
2021/03/05 05:05:15;;;;;;;20.60;9.10;;;;;;;7.37;45.01;94512.94;5012538;28;20173;-71
2021/03/05 05:07:41;;;;;;;26.60;9.50;;;;;;;7.42;43.63;94517.28;5012346;28;20255;-71
2021/03/05 05:10:07;;;;;;;14.67;7.90;;;;;;;7.06;43.44;94513.50;5010237;28;20216;-71
2021/03/05 05:12:33;;;;;;;19.60;9.90;;;;;;;7.06;43.24;94516.16;5012425;28;20169;-71
2021/03/05 05:14:58;;;;;;;25.20;10.97;;;;;;;7.39;43.13;94517.94;5012113;28;20415;-73
2021/03/05 05:17:24;;;;;;;27.13;10.93;;;;;;;7.49;42.83;94517.47;5011561;28;20224;-74
2021/03/05 05:19:49;;;;;;;33.77;11.57;;;;;;;7.64;43.45;94530.09;5012070;28;20173;-74
2021/03/05 05:22:15;;;;;;;22.13;10.63;;;;;;;7.48;44.78;94528.44;5012326;28;20162;-73
2021/03/05 05:24:41;;;;;;;26.03;11.90;;;;;;;7.80;42.70;94516.09;5012011;28;20257;-76
2021/03/05 05:27:06;;;;;;;28.30;10.97;;;;;;;7.88;42.67;94531.94;5012284;28;20576;-75
2021/03/05 05:29:32;;;;;;;28.37;9.27;;;;;;;7.88;44.59;94525.84;5012049;28;20205;-74
2021/03/05 05:31:57;;;;;;;22.07;9.70;;;;;;;7.91;43.02;94530.47;5012464;28;20169;-73
2021/03/05 05:34:23;;;;;;;21.70;9.57;;;;;;;7.90;42.12;94531.59;5012162;28;20173;-75
2021/03/05 05:36:48;;;;;;;20.03;9.03;;;;;;;7.93;43.38;94525.59;5011599;28;20213;-73
2021/03/05 05:39:14;;;;;;;19.07;7.93;;;;;;;7.80;44.50;94540.81;5012116;28;20169;-76
2021/03/05 05:41:40;;;;;;;27.73;8.60;;;;;;;7.56;45.41;94532.84;5011847;28;20184;-73
2021/03/05 05:44:06;;;;;;;18.70;9.50;;;;;;;7.83;44.29;94540.13;5012048;28;20809;-73
2021/03/05 05:46:31;;;;;;;23.60;8.37;;;;;;;7.39;45.41;94544.50;5011799;28;20184;-73
2021/03/05 05:48:57;;;;;;;24.97;10.33;;;;;;;6.95;44.45;94546.13;5011936;28;20789;-74
2021/03/05 05:51:24;;;;;;;22.77;9.40;;;;;;;6.81;45.18;94541.91;5011409;28;20169;-74
2021/03/05 05:53:50;;;;;;;25.30;10.57;;;;;;;6.66;44.67;94541.75;5011970;28;20251;-72
2021/03/05 05:56:16;;;;;;;28.73;9.63;;;;;;;6.70;44.65;94547.94;4994026;28;20490;-72
2021/03/05 05:58:43;;;;;;;21.83;9.90;;;;;;;6.94;44.89;94548.00;5010628;28;20652;-72
2021/03/05 06:01:08;;;;;;;33.77;11.87;;;;;;;7.37;44.99;94555.44;5011927;28;20411;-73
2021/03/05 06:03:34;;;;;;;45.87;12.67;;;;;;;7.52;44.71;94553.22;5011839;28;20926;-74
2021/03/05 06:05:59;;;;;;;24.80;10.80;;;;;;;7.85;43.10;94556.50;5010486;28;20173;-73
2021/03/05 06:08:25;;;;;;;28.20;11.13;;;;;;;8.09;42.79;94541.63;5010292;28;20192;-73
2021/03/05 06:10:53;;;;;;;24.43;10.57;;;;;;;8.08;42.92;94548.03;5011819;28;20172;-71
2021/03/05 06:13:19;;;;;;;21.67;9.77;;;;;;;8.39;43.36;94550.09;5011419;28;20172;-71
2021/03/05 06:15:44;;;;;;;22.70;10.60;;;;;;;8.42;43.94;94544.88;5009888;28;21012;-70
2021/03/05 06:18:28;;;;;;;31.07;10.80;;;;;;;8.66;43.22;94551.19;5011318;28;20428;-72
2021/03/05 06:20:53;;;;;;;26.53;11.23;;;;;;;8.47;42.94;94565.13;5010319;28;20173;-73
2021/03/05 06:23:19;;;;;;;24.83;10.33;;;;;;;8.51;43.39;94549.25;5011167;28;20419;-71
2021/03/05 06:25:44;;;;;;;38.03;12.83;;;;;;;8.72;41.65;94557.81;5010450;28;20173;-75
2021/03/05 06:28:17;;;;;;;30.97;10.77;;;;;;;9.06;40.63;94552.97;5012864;28;20172;-71
2021/03/05 06:30:43;;;;;;;33.40;11.13;;;;;;;8.98;41.29;94562.69;4997763;28;20261;-72
2021/03/05 06:33:39;;;;;;;23.90;10.20;;;;;;;9.37;38.61;94563.63;5015054;28;20938;-72
2021/03/05 06:36:15;;;;;;;29.43;10.87;;;;;;;9.48;39.54;94563.88;5000220;28;20501;-73
2021/03/05 06:38:45;;;;;;;31.57;10.77;;;;;;;9.78;37.13;94564.19;5014807;28;20423;-74
2021/03/05 06:41:15;;;;;;;32.13;11.60;;;;;;;9.58;38.83;94555.34;5011737;28;21059;-71
2021/03/05 06:43:59;;;;;;;25.93;11.57;;;;;;;9.53;38.72;94543.06;5005666;28;21050;-72
2021/03/05 06:46:41;;;;;;;35.60;13.53;;;;;;;9.77;38.83;94558.09;5004271;28;20439;-72
2021/03/05 06:49:08;;;;;;;29.33;12.13;;;;;;;10.03;37.38;94551.38;5025012;28;20941;-72
2021/03/05 06:51:34;;;;;;;25.07;11.90;;;;;;;10.19;36.69;94559.34;5010871;28;20941;-71
2021/03/05 06:54:03;;;;;;;29.03;12.03;;;;;;;10.28;35.67;94563.38;5012138;28;20474;-72
2021/03/05 06:56:30;;;;;;;29.57;12.37;;;;;;;10.29;36.22;94564.94;5013591;28;20200;-74
2021/03/05 06:59:12;;;;;;;30.53;12.40;;;;;;;10.32;36.05;94558.91;5013086;28;20432;-73
2021/03/05 07:01:48;;;;;;;24.93;11.40;;;;;;;10.13;38.43;94550.84;5014435;28;20950;-73
2021/03/05 07:04:23;;;;;;;38.93;12.63;;;;;;;10.15;38.07;94553.16;5008854;28;20956;-73
2021/03/05 07:06:58;;;;;;;40.33;13.07;;;;;;;10.78;35.75;94561.69;5012920;28;20419;-76
2021/03/05 07:09:29;;;;;;;28.97;11.93;;;;;;;10.83;35.22;94556.06;5014523;28;20446;-71
2021/03/05 07:11:55;;;;;;;24.97;12.70;;;;;;;10.45;36.10;94556.88;5014376;28;20412;-71
2021/03/05 07:14:28;;;;;;;30.03;12.63;;;;;;;10.75;36.34;94551.69;5014229;28;20431;-71
2021/03/05 07:16:55;;;;;;;29.10;12.57;;;;;;;10.99;35.95;94561.28;5014116;28;20470;-73
2021/03/05 07:19:21;;;;;;;31.60;12.20;;;;;;;10.98;36.88;94542.94;5014064;28;20466;-74
2021/03/05 07:21:48;;;;;;;30.33;12.50;;;;;;;11.34;36.57;94549.69;5010410;28;20420;-71
2021/03/05 07:24:15;;;;;;;31.67;12.70;;;;;;;11.47;35.31;94543.00;5010786;28;20966;-73
2021/03/05 07:26:44;;;;;;;29.67;12.97;;;;;;;11.66;35.10;94563.53;5013906;28;20855;-75
2021/03/05 07:29:16;;;;;;;26.30;12.33;;;;;;;11.67;34.81;94554.38;5012894;28;20440;-73
2021/03/05 07:31:42;;;;;;;28.93;11.23;;;;;;;11.46;34.16;94548.72;5013767;28;20436;-72
2021/03/05 07:34:08;;;;;;;19.87;8.87;;;;;;;11.70;33.37;94551.00;5013802;28;20514;-75
2021/03/05 07:36:34;;;;;;;43.67;12.00;;;;;;;11.58;32.81;94549.28;5012880;28;20220;-72
2021/03/05 07:39:04;;;;;;;26.63;11.43;;;;;;;11.66;33.11;94545.56;4996245;28;20276;-70
2021/03/05 07:41:29;;;;;;;27.60;12.03;;;;;;;11.67;33.37;94543.66;5012433;28;20783;-70
2021/03/05 07:43:55;;;;;;;32.60;12.20;;;;;;;11.54;33.13;94548.44;5008275;28;20415;-71
2021/03/05 07:46:21;;;;;;;22.57;11.37;;;;;;;11.75;33.46;94547.25;5011536;28;20177;-70
2021/03/05 07:48:47;;;;;;;19.10;10.50;;;;;;;11.91;33.59;94537.94;4996077;28;20584;-70
2021/03/05 07:51:12;;;;;;;25.43;11.93;;;;;;;11.89;32.79;94547.47;5013704;28;20173;-71
2021/03/05 07:53:54;;;;;;;27.03;12.13;;;;;;;12.12;33.23;94544.72;5011990;28;20470;-74
2021/03/05 07:56:43;;;;;;;28.33;12.50;;;;;;;12.21;32.91;94545.22;5012329;28;20209;-71
2021/03/05 07:59:09;;;;;;;19.60;10.93;;;;;;;12.36;31.89;94544.28;5013568;28;20428;-71
2021/03/05 08:01:52;;;;;;;26.27;12.10;;;;;;;12.42;33.31;94547.41;5013178;28;20419;-71
2021/03/05 08:04:18;;;;;;;20.10;9.83;;;;;;;12.71;30.24;94541.22;5013660;28;20187;-71
2021/03/05 08:06:43;;;;;;;22.93;10.27;;;;;;;12.77;30.97;94535.53;5012239;28;20736;-72
2021/03/05 08:09:15;;;;;;;24.17;11.57;;;;;;;12.94;28.84;94537.63;5012295;28;20177;-73
2021/03/05 08:11:40;;;;;;;42.03;10.87;;;;;;;13.00;29.63;94513.94;5013614;28;20189;-70
2021/03/05 08:14:26;;;;;;;18.40;9.60;;;;;;;13.08;28.04;94527.06;5012064;28;21012;-70
2021/03/05 08:16:52;;;;;;;21.33;8.17;;;;;;;12.93;26.29;94514.66;5013177;28;20215;-72
2021/03/05 08:19:18;;;;;;;23.13;9.67;;;;;;;12.78;26.97;94504.94;5012035;28;20991;-72
2021/03/05 08:22:00;;;;;;;22.03;10.27;;;;;;;12.93;27.17;94514.66;5013314;28;20519;-73
2021/03/05 08:24:39;;;;;;;19.87;8.70;;;;;;;13.11;26.42;94522.84;5013174;28;20185;-72
2021/03/05 08:27:20;;;;;;;16.53;9.67;;;;;;;13.23;26.65;94515.31;5013010;28;20432;-73
2021/03/05 08:29:53;;;;;;;28.00;8.93;;;;;;;13.28;27.17;94500.03;5013280;28;20423;-74
2021/03/05 08:32:48;;;;;;;20.60;9.07;;;;;;;13.52;25.81;94506.72;5013088;28;20412;-72
2021/03/05 08:35:19;;;;;;;24.53;9.17;;;;;;;13.43;26.63;94505.16;4984180;28;20439;-71
2021/03/05 08:38:06;;;;;;;19.60;8.80;;;;;;;13.82;27.16;94485.09;5011925;28;20416;-71
2021/03/05 08:40:32;;;;;;;22.83;9.53;;;;;;;13.88;24.60;94497.78;5012855;28;20431;-72
2021/03/05 08:43:18;;;;;;;17.70;8.97;;;;;;;13.98;26.07;94501.69;5012876;28;20415;-72
2021/03/05 08:45:52;;;;;;;21.27;8.67;;;;;;;14.14;25.72;94504.03;5012580;28;20861;-72
2021/03/05 08:48:37;;;;;;;17.43;10.27;;;;;;;14.28;25.61;94496.06;5012847;28;20423;-72
2021/03/05 08:51:09;;;;;;;25.53;10.17;;;;;;;14.31;24.57;94500.69;5012636;28;20443;-71
2021/03/05 08:53:38;;;;;;;30.30;10.70;;;;;;;14.36;26.28;94473.44;5012373;28;20467;-71
2021/03/05 08:56:04;;;;;;;23.60;11.27;;;;;;;14.61;25.44;94483.53;5012600;28;20471;-71
2021/03/05 08:58:29;;;;;;;25.37;11.63;;;;;;;14.97;25.76;94477.06;5012791;28;20428;-71
2021/03/05 09:00:55;;;;;;;22.33;10.83;;;;;;;15.17;25.99;94476.72;5012644;28;20247;-71
2021/03/05 09:03:20;;;;;;;22.10;10.63;;;;;;;15.06;25.53;94485.53;5012757;28;20176;-71
2021/03/05 09:05:47;;;;;;;23.33;9.37;;;;;;;15.32;25.77;94479.03;5012453;28;20173;-71
2021/03/05 09:08:14;;;;;;;34.07;10.50;;;;;;;15.01;25.23;94459.03;5012571;28;20173;-72
2021/03/05 09:10:43;;;;;;;30.57;11.03;;;;;;;15.21;25.20;94478.25;5012173;28;20796;-73
2021/03/05 09:13:09;;;;;;;26.03;11.30;;;;;;;15.57;24.97;94456.72;5012639;28;20430;-74
2021/03/05 09:15:49;;;;;;;34.50;12.23;;;;;;;15.87;25.83;94473.19;5012223;28;20463;-73
2021/03/05 09:18:16;;;;;;;27.77;12.07;;;;;;;16.14;25.22;94467.34;5012393;28;20423;-72
2021/03/05 09:20:47;;;;;;;27.13;10.73;;;;;;;16.20;23.99;94468.50;5012244;28;20644;-71
2021/03/05 09:23:16;;;;;;;27.73;11.97;;;;;;;16.20;25.27;94473.88;5010908;28;20464;-71
2021/03/05 09:25:52;;;;;;;29.17;12.70;;;;;;;16.29;25.07;94473.47;5012216;28;20925;-72
2021/03/05 09:28:19;;;;;;;35.13;14.33;;;;;;;16.45;25.31;94464.94;5012270;28;20560;-73
2021/03/05 09:30:54;;;;;;;44.30;15.03;;;;;;;16.32;24.55;94465.34;5010806;28;20184;-75
2021/03/05 09:33:30;;;;;;;27.73;13.63;;;;;;;16.20;24.23;94454.25;5012242;28;20271;-75
2021/03/05 09:36:06;;;;;;;23.57;11.73;;;;;;;16.44;24.49;94447.22;5011675;28;20203;-73
2021/03/05 09:38:32;;;;;;;22.83;10.47;;;;;;;16.59;25.00;94457.53;5011001;28;20179;-70
2021/03/05 09:41:16;;;;;;;18.20;10.30;;;;;;;16.84;24.27;94451.28;5010726;28;20603;-73
2021/03/05 09:43:42;;;;;;;25.70;11.23;;;;;;;16.66;25.12;94454.03;5011971;28;20659;-74
2021/03/05 09:46:24;;;;;;;20.50;10.23;;;;;;;16.97;24.26;94441.53;5011813;28;20187;-74
2021/03/05 09:48:51;;;;;;;22.63;11.07;;;;;;;16.88;23.99;94444.69;5011764;28;20200;-74
2021/03/05 09:51:16;;;;;;;25.33;10.53;;;;;;;17.00;23.93;94437.28;5011950;28;20181;-73
2021/03/05 09:53:52;;;;;;;21.80;10.33;;;;;;;17.30;23.37;94442.84;5011894;28;20177;-72
2021/03/05 09:56:18;;;;;;;25.83;11.03;;;;;;;17.32;24.20;94445.91;5011787;28;20257;-74
2021/03/05 09:58:53;;;;;;;26.63;11.00;;;;;;;17.29;24.09;94440.53;5010345;28;20193;-74
2021/03/05 10:01:19;;;;;;;21.17;10.10;;;;;;;17.56;22.68;94438.72;5010439;28;20215;-72
2021/03/05 10:03:51;;;;;;;17.37;9.17;;;;;;;17.73;23.11;94426.25;5011305;28;20176;-72
2021/03/05 10:06:17;;;;;;;21.90;9.83;;;;;;;17.92;22.42;94433.03;5011730;28;20181;-73
2021/03/05 10:08:42;;;;;;;11.50;5.13;;;;;;;17.90;17.00;94419.13;5011544;28;20610;-71
2021/03/05 10:11:11;;;;;;;10.57;5.57;;;;;;;18.14;17.86;94420.81;5011361;28;20184;-73
2021/03/05 10:13:54;;;;;;;11.03;5.47;;;;;;;18.08;16.78;94406.22;5010227;28;20177;-71
2021/03/05 10:16:32;;;;;;;12.27;3.30;;;;;;;18.33;15.14;94408.59;5011367;28;20208;-74
2021/03/05 10:19:30;;;;;;;4.17;2.60;;;;;;;18.34;14.91;94407.41;5011400;28;20197;-73
2021/03/05 10:21:56;;;;;;;49.80;11.50;;;;;;;18.57;18.00;94414.81;4931800;29;20206;-72
2021/03/05 10:24:25;;;;;;;28.37;8.93;;;;;;;18.58;17.88;94407.50;4931491;29;20188;-71
2021/03/05 10:29:41;;;;;;;12.37;6.53;;;;;;;18.68;16.52;94391.13;4916682;29;20183;-71
2021/03/05 10:32:27;;;;;;;12.40;4.50;;;;;;;18.54;15.10;94385.91;4932140;29;20674;-72
2021/03/05 10:34:53;;;;;;;4.10;2.87;;;;;;;18.80;14.27;94387.13;4931912;29;20180;-73
2021/03/05 10:37:19;;;;;;;3.73;2.43;;;;;;;19.14;14.43;94376.16;4931785;29;20217;-72
2021/03/05 10:39:45;;;;;;;3.13;2.47;;;;;;;19.19;13.41;94377.59;4931792;29;20190;-72
2021/03/05 10:42:14;;;;;;;3.93;2.50;;;;;;;19.50;12.56;94370.88;4931992;29;20188;-72
2021/03/05 10:44:40;;;;;;;5.00;2.30;;;;;;;19.61;13.92;94378.84;4931550;29;20184;-72
2021/03/05 10:47:07;;;;;;;2.97;2.17;;;;;;;19.63;12.49;94373.75;4915928;29;20563;-74
2021/03/05 10:49:32;;;;;;;3.23;2.03;;;;;;;19.60;12.26;94361.06;4931252;29;20190;-71
2021/03/05 10:51:58;;;;;;;4.23;2.50;;;;;;;19.44;12.20;94355.53;4915150;29;20693;-73
2021/03/05 10:54:24;;;;;;;3.77;2.43;;;;;;;19.75;14.23;94356.13;4931539;29;20176;-72
2021/03/05 10:56:50;;;;;;;4.03;2.20;;;;;;;19.86;11.83;94350.50;4931670;29;20278;-73
2021/03/05 10:59:18;;;;;;;3.17;2.20;;;;;;;19.85;13.24;94349.75;5003303;28;20194;-74
2021/03/05 11:01:44;;;;;;;3.93;2.50;;;;;;;19.73;12.73;94342.25;5010077;28;20640;-73
2021/03/05 11:04:10;;;;;;;4.83;2.53;;;;;;;19.80;12.97;94342.84;5010815;28;20177;-72
2021/03/05 11:06:35;;;;;;;4.13;2.30;;;;;;;20.06;13.28;94343.13;5011358;28;20721;-73
2021/03/05 11:09:03;;;;;;;12.07;2.60;;;;;;;20.31;13.31;94337.19;5011315;28;20662;-72
2021/03/05 11:11:29;;;;;;;9.03;2.60;;;;;;;20.15;12.64;94324.38;5010959;28;20173;-72
2021/03/05 11:13:54;;;;;;;7.90;2.77;;;;;;;20.04;13.09;94313.75;5011103;28;20184;-71
2021/03/05 11:16:20;;;;;;;13.37;3.17;;;;;;;20.05;13.05;94322.66;5013863;28;20794;-72
2021/03/05 11:18:45;;;;;;;9.10;2.40;;;;;;;20.10;12.83;94322.16;5014710;28;20180;-71
2021/03/05 11:21:11;;;;;;;3.60;2.57;;;;;;;19.98;12.74;94314.66;5014228;28;20181;-71
2021/03/05 11:23:36;;;;;;;4.30;2.23;;;;;;;19.72;13.11;94317.09;5014529;28;20226;-72
2021/03/05 11:26:02;;;;;;;3.70;2.00;;;;;;;19.90;14.09;94308.63;5014227;28;20196;-72
2021/03/05 11:28:27;;;;;;;3.43;2.53;;;;;;;20.08;12.16;94311.72;5014302;28;20172;-71
2021/03/05 11:30:53;;;;;;;3.37;2.47;;;;;;;20.34;13.71;94307.28;5014021;28;20176;-73
2021/03/05 11:33:19;;;;;;;2.40;1.77;;;;;;;20.16;10.72;94301.50;5014236;28;20169;-73